Accueil
METAR-TAF:

METAR-TAF

Aéroports :

New River Valley Airport

Dublin, Virginie, États-Unis

latitude: 37-08N, longitude: 080-41W, altitude: 642 m

Observation

Le bulletin a été fait il y a 16 minutes, à 21:55 UTC
Vent 10 kt de ouest
Température 2°C
Humidité 87%
Pression 1013 hPa
Visibilité: 16.1 km
Nuages épars à une hauteur de 1500 ft
Nuages fragmentés à une hauteur de 5500 ft
Ciel couvert à une hauteur de 10000 ft

METAR: KPSK 282155Z AUTO 27010KT 10SM SCT015 BKN055 OVC100 02/00 A2992 RMK AO2 T00161003

Heure: 17:11 (22:11 UTC)


TAF: absent

Observations et prévisions météorologiques de plus de 4000 aéroports (messages METAR et TAF).

Les stations disponibles sont représentées par des disques jaunes et rouges sur la carte.

Passer la souris dessus pour voir le nom de la station.

Cliquer dessus pour voir les observations et prévisions météorologiques.

Pour changer de carte: cliquez sur les boutons verts avec une croix noire pour zoomer, sur le bouton vert avec un tiret pour effectuer un zoom arrière, ou sur les flèches vertes pour les cartes adjacentes.


METAR-TAF: